sensor_id;sensor_type;location;lat;lon;timestamp;P1;durP1;ratioP1;P2;durP2;ratioP2
53519;SDS011;39397;53.204;5.778;2023-05-07T00:00:54;22.95;;;18.15;;
53519;SDS011;39397;53.204;5.778;2023-05-07T00:03:20;19.95;;;17.77;;
53519;SDS011;39397;53.204;5.778;2023-05-07T00:05:46;23.35;;;18.23;;
53519;SDS011;39397;53.204;5.778;2023-05-07T00:08:13;19.13;;;16.48;;
53519;SDS011;39397;53.204;5.778;2023-05-07T00:10:38;19.10;;;16.63;;
53519;SDS011;39397;53.204;5.778;2023-05-07T00:13:04;24.50;;;19.38;;
53519;SDS011;39397;53.204;5.778;2023-05-07T00:15:30;21.85;;;18.40;;
53519;SDS011;39397;53.204;5.778;2023-05-07T00:17:56;21.50;;;18.42;;
53519;SDS011;39397;53.204;5.778;2023-05-07T00:20:23;20.05;;;17.35;;
53519;SDS011;39397;53.204;5.778;2023-05-07T00:22:49;22.25;;;18.17;;
53519;SDS011;39397;53.204;5.778;2023-05-07T00:25:15;21.08;;;17.77;;
53519;SDS011;39397;53.204;5.778;2023-05-07T00:27:40;23.95;;;20.00;;
53519;SDS011;39397;53.204;5.778;2023-05-07T00:30:08;23.55;;;18.73;;
53519;SDS011;39397;53.204;5.778;2023-05-07T00:32:34;21.63;;;17.88;;
53519;SDS011;39397;53.204;5.778;2023-05-07T00:35:01;23.75;;;18.08;;
53519;SDS011;39397;53.204;5.778;2023-05-07T00:37:27;22.60;;;17.48;;
53519;SDS011;39397;53.204;5.778;2023-05-07T00:39:53;21.95;;;18.10;;
53519;SDS011;39397;53.204;5.778;2023-05-07T00:42:18;23.60;;;18.90;;
53519;SDS011;39397;53.204;5.778;2023-05-07T00:44:44;24.58;;;19.67;;
53519;SDS011;39397;53.204;5.778;2023-05-07T00:47:10;22.55;;;18.63;;
53519;SDS011;39397;53.204;5.778;2023-05-07T00:49:37;24.90;;;18.88;;
53519;SDS011;39397;53.204;5.778;2023-05-07T00:52:09;22.98;;;19.85;;
53519;SDS011;39397;53.204;5.778;2023-05-07T00:54:40;21.92;;;18.33;;
53519;SDS011;39397;53.204;5.778;2023-05-07T00:57:06;23.50;;;19.05;;
53519;SDS011;39397;53.204;5.778;2023-05-07T00:59:33;23.50;;;18.27;;
53519;SDS011;39397;53.204;5.778;2023-05-07T01:02:00;20.77;;;16.75;;
53519;SDS011;39397;53.204;5.778;2023-05-07T01:04:26;23.05;;;19.33;;
53519;SDS011;39397;53.204;5.778;2023-05-07T01:06:52;22.83;;;18.55;;
53519;SDS011;39397;53.204;5.778;2023-05-07T01:09:25;22.50;;;18.67;;
53519;SDS011;39397;53.204;5.778;2023-05-07T01:11:51;25.33;;;19.02;;
53519;SDS011;39397;53.204;5.778;2023-05-07T01:14:18;21.85;;;17.17;;
53519;SDS011;39397;53.204;5.778;2023-05-07T01:16:45;21.83;;;18.80;;
53519;SDS011;39397;53.204;5.778;2023-05-07T01:19:17;23.45;;;18.80;;
53519;SDS011;39397;53.204;5.778;2023-05-07T01:21:44;21.73;;;18.42;;
53519;SDS011;39397;53.204;5.778;2023-05-07T01:24:12;22.58;;;19.45;;
53519;SDS011;39397;53.204;5.778;2023-05-07T01:26:38;21.52;;;18.77;;
53519;SDS011;39397;53.204;5.778;2023-05-07T01:29:04;20.25;;;17.90;;
53519;SDS011;39397;53.204;5.778;2023-05-07T01:31:32;22.55;;;18.27;;
53519;SDS011;39397;53.204;5.778;2023-05-07T01:34:00;22.80;;;19.15;;
53519;SDS011;39397;53.204;5.778;2023-05-07T01:36:29;22.40;;;18.00;;
53519;SDS011;39397;53.204;5.778;2023-05-07T01:38:56;25.52;;;18.88;;
53519;SDS011;39397;53.204;5.778;2023-05-07T01:41:23;24.17;;;19.90;;
53519;SDS011;39397;53.204;5.778;2023-05-07T01:43:50;22.90;;;19.70;;
53519;SDS011;39397;53.204;5.778;2023-05-07T01:46:17;22.65;;;18.98;;
53519;SDS011;39397;53.204;5.778;2023-05-07T01:48:44;22.25;;;19.23;;
53519;SDS011;39397;53.204;5.778;2023-05-07T01:51:11;25.15;;;18.75;;
53519;SDS011;39397;53.204;5.778;2023-05-07T01:53:38;24.35;;;19.00;;
53519;SDS011;39397;53.204;5.778;2023-05-07T01:56:05;25.50;;;19.73;;
53519;SDS011;39397;53.204;5.778;2023-05-07T01:58:37;26.77;;;20.50;;
53519;SDS011;39397;53.204;5.778;2023-05-07T02:01:08;25.70;;;20.45;;
53519;SDS011;39397;53.204;5.778;2023-05-07T02:03:34;25.05;;;20.00;;
53519;SDS011;39397;53.204;5.778;2023-05-07T02:06:00;26.08;;;21.13;;
53519;SDS011;39397;53.204;5.778;2023-05-07T02:08:26;24.77;;;21.02;;
53519;SDS011;39397;53.204;5.778;2023-05-07T02:10:52;26.88;;;21.42;;
53519;SDS011;39397;53.204;5.778;2023-05-07T02:13:19;24.67;;;21.45;;
53519;SDS011;39397;53.204;5.778;2023-05-07T02:15:45;26.27;;;22.33;;
53519;SDS011;39397;53.204;5.778;2023-05-07T02:18:15;28.38;;;22.42;;
53519;SDS011;39397;53.204;5.778;2023-05-07T02:20:41;27.33;;;22.23;;
53519;SDS011;39397;53.204;5.778;2023-05-07T02:23:07;27.52;;;20.83;;
53519;SDS011;39397;53.204;5.778;2023-05-07T02:25:33;26.75;;;22.27;;
53519;SDS011;39397;53.204;5.778;2023-05-07T02:27:59;30.13;;;23.70;;
53519;SDS011;39397;53.204;5.778;2023-05-07T02:30:25;27.52;;;22.67;;
53519;SDS011;39397;53.204;5.778;2023-05-07T02:32:51;29.23;;;23.77;;
53519;SDS011;39397;53.204;5.778;2023-05-07T02:35:16;27.10;;;23.35;;
53519;SDS011;39397;53.204;5.778;2023-05-07T02:37:42;29.20;;;22.25;;
53519;SDS011;39397;53.204;5.778;2023-05-07T02:40:08;27.48;;;23.40;;
53519;SDS011;39397;53.204;5.778;2023-05-07T02:42:35;25.50;;;22.67;;
53519;SDS011;39397;53.204;5.778;2023-05-07T02:45:00;31.25;;;24.48;;
53519;SDS011;39397;53.204;5.778;2023-05-07T02:47:26;29.05;;;23.23;;
53519;SDS011;39397;53.204;5.778;2023-05-07T02:49:53;28.95;;;23.55;;
53519;SDS011;39397;53.204;5.778;2023-05-07T02:52:19;28.23;;;23.85;;
53519;SDS011;39397;53.204;5.778;2023-05-07T02:54:45;29.85;;;24.85;;
53519;SDS011;39397;53.204;5.778;2023-05-07T02:57:11;24.73;;;21.15;;
53519;SDS011;39397;53.204;5.778;2023-05-07T02:59:37;32.28;;;25.30;;
53519;SDS011;39397;53.204;5.778;2023-05-07T03:02:02;27.70;;;22.88;;
53519;SDS011;39397;53.204;5.778;2023-05-07T03:04:28;26.80;;;23.25;;
53519;SDS011;39397;53.204;5.778;2023-05-07T03:06:54;28.02;;;24.38;;
53519;SDS011;39397;53.204;5.778;2023-05-07T03:09:20;27.80;;;23.27;;
53519;SDS011;39397;53.204;5.778;2023-05-07T03:11:46;28.98;;;23.67;;
53519;SDS011;39397;53.204;5.778;2023-05-07T03:14:11;27.88;;;21.77;;
53519;SDS011;39397;53.204;5.778;2023-05-07T03:16:37;26.48;;;22.70;;
53519;SDS011;39397;53.204;5.778;2023-05-07T03:19:03;27.00;;;23.13;;
53519;SDS011;39397;53.204;5.778;2023-05-07T03:21:29;30.02;;;23.08;;
53519;SDS011;39397;53.204;5.778;2023-05-07T03:23:55;32.83;;;23.65;;
53519;SDS011;39397;53.204;5.778;2023-05-07T03:26:21;26.83;;;22.80;;
53519;SDS011;39397;53.204;5.778;2023-05-07T03:28:47;28.67;;;22.88;;
53519;SDS011;39397;53.204;5.778;2023-05-07T03:31:13;27.95;;;24.05;;
53519;SDS011;39397;53.204;5.778;2023-05-07T03:33:48;25.70;;;22.23;;
53519;SDS011;39397;53.204;5.778;2023-05-07T03:36:22;30.02;;;24.20;;
53519;SDS011;39397;53.204;5.778;2023-05-07T03:38:48;26.88;;;23.58;;
53519;SDS011;39397;53.204;5.778;2023-05-07T03:41:14;30.88;;;24.15;;
53519;SDS011;39397;53.204;5.778;2023-05-07T03:43:40;26.73;;;22.63;;
53519;SDS011;39397;53.204;5.778;2023-05-07T03:46:06;29.70;;;24.15;;
53519;SDS011;39397;53.204;5.778;2023-05-07T03:48:32;28.35;;;23.33;;
53519;SDS011;39397;53.204;5.778;2023-05-07T03:50:58;31.45;;;26.00;;
53519;SDS011;39397;53.204;5.778;2023-05-07T03:53:24;31.80;;;24.42;;
53519;SDS011;39397;53.204;5.778;2023-05-07T03:55:50;30.35;;;24.30;;
53519;SDS011;39397;53.204;5.778;2023-05-07T03:58:15;30.38;;;25.58;;
53519;SDS011;39397;53.204;5.778;2023-05-07T04:00:41;31.60;;;25.23;;
53519;SDS011;39397;53.204;5.778;2023-05-07T04:03:07;30.13;;;25.58;;
53519;SDS011;39397;53.204;5.778;2023-05-07T04:05:33;31.55;;;25.10;;
53519;SDS011;39397;53.204;5.778;2023-05-07T04:07:59;29.65;;;26.48;;
53519;SDS011;39397;53.204;5.778;2023-05-07T04:10:26;30.55;;;25.75;;
53519;SDS011;39397;53.204;5.778;2023-05-07T04:12:53;31.23;;;25.27;;
53519;SDS011;39397;53.204;5.778;2023-05-07T04:15:19;31.80;;;26.20;;
53519;SDS011;39397;53.204;5.778;2023-05-07T04:17:44;33.90;;;26.13;;
53519;SDS011;39397;53.204;5.778;2023-05-07T04:20:13;34.45;;;26.67;;
53519;SDS011;39397;53.204;5.778;2023-05-07T04:22:41;31.73;;;26.05;;
53519;SDS011;39397;53.204;5.778;2023-05-07T04:25:07;32.70;;;26.55;;
53519;SDS011;39397;53.204;5.778;2023-05-07T04:27:37;33.20;;;26.73;;
53519;SDS011;39397;53.204;5.778;2023-05-07T04:30:02;30.08;;;25.63;;
53519;SDS011;39397;53.204;5.778;2023-05-07T04:32:29;29.98;;;25.85;;
53519;SDS011;39397;53.204;5.778;2023-05-07T04:34:55;32.35;;;27.15;;
53519;SDS011;39397;53.204;5.778;2023-05-07T04:37:21;31.92;;;26.02;;
53519;SDS011;39397;53.204;5.778;2023-05-07T04:39:47;32.30;;;25.98;;
53519;SDS011;39397;53.204;5.778;2023-05-07T04:42:16;31.90;;;26.70;;
53519;SDS011;39397;53.204;5.778;2023-05-07T04:44:43;33.00;;;27.88;;
53519;SDS011;39397;53.204;5.778;2023-05-07T04:47:09;33.42;;;28.17;;
53519;SDS011;39397;53.204;5.778;2023-05-07T04:49:35;34.70;;;27.30;;
53519;SDS011;39397;53.204;5.778;2023-05-07T04:52:02;32.80;;;27.05;;
53519;SDS011;39397;53.204;5.778;2023-05-07T04:54:28;34.60;;;28.55;;
53519;SDS011;39397;53.204;5.778;2023-05-07T04:56:54;31.08;;;25.35;;
53519;SDS011;39397;53.204;5.778;2023-05-07T04:59:20;36.85;;;28.50;;
53519;SDS011;39397;53.204;5.778;2023-05-07T05:01:46;32.75;;;27.27;;
53519;SDS011;39397;53.204;5.778;2023-05-07T05:04:11;33.90;;;27.52;;
53519;SDS011;39397;53.204;5.778;2023-05-07T05:06:38;34.72;;;26.90;;
53519;SDS011;39397;53.204;5.778;2023-05-07T05:09:04;33.65;;;27.38;;
53519;SDS011;39397;53.204;5.778;2023-05-07T05:11:30;34.58;;;26.67;;
53519;SDS011;39397;53.204;5.778;2023-05-07T05:13:56;35.22;;;26.90;;
53519;SDS011;39397;53.204;5.778;2023-05-07T05:16:23;34.28;;;27.20;;
53519;SDS011;39397;53.204;5.778;2023-05-07T05:18:49;35.40;;;28.90;;
53519;SDS011;39397;53.204;5.778;2023-05-07T05:21:17;34.15;;;28.13;;
53519;SDS011;39397;53.204;5.778;2023-05-07T05:23:43;35.50;;;26.73;;
53519;SDS011;39397;53.204;5.778;2023-05-07T05:26:08;34.22;;;27.23;;
53519;SDS011;39397;53.204;5.778;2023-05-07T05:28:34;37.58;;;27.90;;
53519;SDS011;39397;53.204;5.778;2023-05-07T05:31:00;33.90;;;27.90;;
53519;SDS011;39397;53.204;5.778;2023-05-07T05:33:25;37.13;;;27.83;;
53519;SDS011;39397;53.204;5.778;2023-05-07T05:35:51;36.85;;;28.15;;
53519;SDS011;39397;53.204;5.778;2023-05-07T05:38:18;34.55;;;27.48;;
53519;SDS011;39397;53.204;5.778;2023-05-07T05:40:44;38.25;;;29.50;;
53519;SDS011;39397;53.204;5.778;2023-05-07T05:43:09;37.25;;;28.75;;
53519;SDS011;39397;53.204;5.778;2023-05-07T05:45:35;40.70;;;29.15;;
53519;SDS011;39397;53.204;5.778;2023-05-07T05:48:01;39.30;;;30.08;;
53519;SDS011;39397;53.204;5.778;2023-05-07T05:50:26;34.17;;;27.77;;
53519;SDS011;39397;53.204;5.778;2023-05-07T05:52:52;37.63;;;28.23;;
53519;SDS011;39397;53.204;5.778;2023-05-07T05:55:18;36.38;;;28.45;;
53519;SDS011;39397;53.204;5.778;2023-05-07T05:57:44;38.80;;;29.08;;
53519;SDS011;39397;53.204;5.778;2023-05-07T06:00:11;38.88;;;29.23;;
53519;SDS011;39397;53.204;5.778;2023-05-07T06:02:37;36.80;;;28.85;;
53519;SDS011;39397;53.204;5.778;2023-05-07T06:05:03;39.85;;;28.63;;
53519;SDS011;39397;53.204;5.778;2023-05-07T06:07:29;35.42;;;28.08;;
53519;SDS011;39397;53.204;5.778;2023-05-07T06:09:55;37.20;;;28.52;;
53519;SDS011;39397;53.204;5.778;2023-05-07T06:12:20;35.10;;;28.42;;
53519;SDS011;39397;53.204;5.778;2023-05-07T06:14:46;33.53;;;27.88;;
53519;SDS011;39397;53.204;5.778;2023-05-07T06:17:12;38.08;;;28.65;;
53519;SDS011;39397;53.204;5.778;2023-05-07T06:19:38;36.63;;;28.30;;
53519;SDS011;39397;53.204;5.778;2023-05-07T06:22:04;35.67;;;27.15;;
53519;SDS011;39397;53.204;5.778;2023-05-07T06:24:29;31.75;;;26.08;;
53519;SDS011;39397;53.204;5.778;2023-05-07T06:26:55;34.83;;;26.20;;
53519;SDS011;39397;53.204;5.778;2023-05-07T06:29:21;31.50;;;25.70;;
53519;SDS011;39397;53.204;5.778;2023-05-07T06:31:46;31.48;;;25.88;;
53519;SDS011;39397;53.204;5.778;2023-05-07T06:34:12;32.28;;;24.50;;
53519;SDS011;39397;53.204;5.778;2023-05-07T06:36:42;31.05;;;25.20;;
53519;SDS011;39397;53.204;5.778;2023-05-07T06:39:08;30.92;;;25.52;;
53519;SDS011;39397;53.204;5.778;2023-05-07T06:41:33;32.78;;;25.85;;
53519;SDS011;39397;53.204;5.778;2023-05-07T06:44:00;30.10;;;24.67;;
53519;SDS011;39397;53.204;5.778;2023-05-07T06:46:30;29.20;;;23.20;;
53519;SDS011;39397;53.204;5.778;2023-05-07T06:48:55;31.30;;;24.02;;
53519;SDS011;39397;53.204;5.778;2023-05-07T06:51:22;30.30;;;23.23;;
53519;SDS011;39397;53.204;5.778;2023-05-07T06:53:47;29.27;;;22.85;;
53519;SDS011;39397;53.204;5.778;2023-05-07T06:56:13;28.10;;;22.27;;
53519;SDS011;39397;53.204;5.778;2023-05-07T06:58:39;29.42;;;23.17;;
53519;SDS011;39397;53.204;5.778;2023-05-07T07:01:05;28.75;;;23.00;;
53519;SDS011;39397;53.204;5.778;2023-05-07T07:03:31;27.00;;;21.92;;
53519;SDS011;39397;53.204;5.778;2023-05-07T07:05:56;26.33;;;21.40;;
53519;SDS011;39397;53.204;5.778;2023-05-07T07:08:22;25.42;;;21.55;;
53519;SDS011;39397;53.204;5.778;2023-05-07T07:10:48;26.17;;;21.55;;
53519;SDS011;39397;53.204;5.778;2023-05-07T07:13:13;23.17;;;20.27;;
53519;SDS011;39397;53.204;5.778;2023-05-07T07:15:39;24.35;;;21.15;;
53519;SDS011;39397;53.204;5.778;2023-05-07T07:18:05;24.38;;;21.38;;
53519;SDS011;39397;53.204;5.778;2023-05-07T07:20:31;23.70;;;20.25;;
53519;SDS011;39397;53.204;5.778;2023-05-07T07:22:57;23.48;;;20.38;;
53519;SDS011;39397;53.204;5.778;2023-05-07T07:25:23;24.77;;;20.70;;
53519;SDS011;39397;53.204;5.778;2023-05-07T07:27:49;25.80;;;20.52;;
53519;SDS011;39397;53.204;5.778;2023-05-07T07:30:15;22.98;;;20.30;;
53519;SDS011;39397;53.204;5.778;2023-05-07T07:32:40;23.58;;;20.00;;
53519;SDS011;39397;53.204;5.778;2023-05-07T07:35:06;21.90;;;18.90;;
53519;SDS011;39397;53.204;5.778;2023-05-07T07:37:32;20.60;;;18.35;;
53519;SDS011;39397;53.204;5.778;2023-05-07T07:39:58;21.10;;;18.05;;
53519;SDS011;39397;53.204;5.778;2023-05-07T07:42:25;26.48;;;18.73;;
53519;SDS011;39397;53.204;5.778;2023-05-07T07:44:51;22.75;;;19.20;;
53519;SDS011;39397;53.204;5.778;2023-05-07T07:47:17;21.20;;;18.38;;
53519;SDS011;39397;53.204;5.778;2023-05-07T07:49:42;20.25;;;17.42;;
53519;SDS011;39397;53.204;5.778;2023-05-07T07:52:08;21.58;;;19.00;;
53519;SDS011;39397;53.204;5.778;2023-05-07T07:54:34;20.13;;;17.95;;
53519;SDS011;39397;53.204;5.778;2023-05-07T07:56:59;23.70;;;19.15;;
53519;SDS011;39397;53.204;5.778;2023-05-07T07:59:26;21.20;;;18.92;;
53519;SDS011;39397;53.204;5.778;2023-05-07T08:01:54;20.83;;;17.10;;
53519;SDS011;39397;53.204;5.778;2023-05-07T08:04:21;18.35;;;16.30;;
53519;SDS011;39397;53.204;5.778;2023-05-07T08:06:47;20.75;;;17.73;;
53519;SDS011;39397;53.204;5.778;2023-05-07T08:09:13;21.73;;;17.92;;
53519;SDS011;39397;53.204;5.778;2023-05-07T08:11:39;20.88;;;18.02;;
53519;SDS011;39397;53.204;5.778;2023-05-07T08:14:05;19.52;;;16.67;;
53519;SDS011;39397;53.204;5.778;2023-05-07T08:16:30;17.75;;;15.85;;
53519;SDS011;39397;53.204;5.778;2023-05-07T08:18:56;20.17;;;17.17;;
53519;SDS011;39397;53.204;5.778;2023-05-07T08:21:22;20.23;;;16.63;;
53519;SDS011;39397;53.204;5.778;2023-05-07T08:23:48;19.63;;;17.08;;
53519;SDS011;39397;53.204;5.778;2023-05-07T08:26:14;18.02;;;15.90;;
53519;SDS011;39397;53.204;5.778;2023-05-07T08:28:40;18.67;;;16.65;;
53519;SDS011;39397;53.204;5.778;2023-05-07T08:31:05;17.80;;;15.90;;
53519;SDS011;39397;53.204;5.778;2023-05-07T08:33:31;19.10;;;15.70;;
53519;SDS011;39397;53.204;5.778;2023-05-07T08:35:57;17.77;;;15.88;;
53519;SDS011;39397;53.204;5.778;2023-05-07T08:38:23;19.58;;;16.42;;
53519;SDS011;39397;53.204;5.778;2023-05-07T08:40:48;17.33;;;15.52;;
53519;SDS011;39397;53.204;5.778;2023-05-07T08:43:14;18.25;;;16.05;;
53519;SDS011;39397;53.204;5.778;2023-05-07T08:45:40;17.50;;;15.35;;
53519;SDS011;39397;53.204;5.778;2023-05-07T08:48:14;20.52;;;15.63;;
53519;SDS011;39397;53.204;5.778;2023-05-07T08:53:06;18.38;;;15.63;;
53519;SDS011;39397;53.204;5.778;2023-05-07T08:55:32;18.13;;;15.38;;
53519;SDS011;39397;53.204;5.778;2023-05-07T08:57:58;20.95;;;16.15;;
53519;SDS011;39397;53.204;5.778;2023-05-07T09:00:24;16.52;;;14.75;;
53519;SDS011;39397;53.204;5.778;2023-05-07T09:02:52;18.42;;;16.52;;
53519;SDS011;39397;53.204;5.778;2023-05-07T09:05:18;20.13;;;15.50;;
53519;SDS011;39397;53.204;5.778;2023-05-07T09:07:44;17.65;;;15.77;;
53519;SDS011;39397;53.204;5.778;2023-05-07T09:10:11;18.95;;;16.85;;
53519;SDS011;39397;53.204;5.778;2023-05-07T09:12:37;19.10;;;16.63;;
53519;SDS011;39397;53.204;5.778;2023-05-07T09:15:05;17.70;;;15.90;;
53519;SDS011;39397;53.204;5.778;2023-05-07T09:17:31;17.77;;;15.98;;
53519;SDS011;39397;53.204;5.778;2023-05-07T09:20:04;19.00;;;16.20;;
53519;SDS011;39397;53.204;5.778;2023-05-07T09:22:35;16.52;;;14.85;;
53519;SDS011;39397;53.204;5.778;2023-05-07T09:25:02;17.52;;;15.48;;
53519;SDS011;39397;53.204;5.778;2023-05-07T09:27:28;18.52;;;16.23;;
53519;SDS011;39397;53.204;5.778;2023-05-07T09:29:53;17.85;;;15.05;;
53519;SDS011;39397;53.204;5.778;2023-05-07T09:32:19;17.70;;;15.63;;
53519;SDS011;39397;53.204;5.778;2023-05-07T09:34:45;17.55;;;15.65;;
53519;SDS011;39397;53.204;5.778;2023-05-07T09:37:12;17.40;;;15.55;;
53519;SDS011;39397;53.204;5.778;2023-05-07T09:39:42;18.38;;;15.65;;
53519;SDS011;39397;53.204;5.778;2023-05-07T09:42:09;16.83;;;15.02;;
53519;SDS011;39397;53.204;5.778;2023-05-07T09:44:36;18.48;;;16.52;;
53519;SDS011;39397;53.204;5.778;2023-05-07T09:47:06;17.67;;;15.82;;
53519;SDS011;39397;53.204;5.778;2023-05-07T09:49:36;18.77;;;16.75;;
53519;SDS011;39397;53.204;5.778;2023-05-07T09:52:07;19.27;;;16.08;;
53519;SDS011;39397;53.204;5.778;2023-05-07T09:54:35;17.58;;;15.77;;
53519;SDS011;39397;53.204;5.778;2023-05-07T09:57:03;18.73;;;16.73;;
53519;SDS011;39397;53.204;5.778;2023-05-07T09:59:33;19.45;;;16.17;;
53519;SDS011;39397;53.204;5.778;2023-05-07T10:02:01;19.02;;;15.23;;
53519;SDS011;39397;53.204;5.778;2023-05-07T10:04:28;18.80;;;16.30;;
53519;SDS011;39397;53.204;5.778;2023-05-07T10:06:54;20.15;;;16.42;;
53519;SDS011;39397;53.204;5.778;2023-05-07T10:09:20;19.70;;;16.20;;
53519;SDS011;39397;53.204;5.778;2023-05-07T10:11:48;18.17;;;16.27;;
53519;SDS011;39397;53.204;5.778;2023-05-07T10:14:15;18.23;;;15.40;;
53519;SDS011;39397;53.204;5.778;2023-05-07T10:16:41;16.98;;;15.02;;
53519;SDS011;39397;53.204;5.778;2023-05-07T10:19:07;16.52;;;14.77;;
53519;SDS011;39397;53.204;5.778;2023-05-07T10:21:37;17.70;;;15.90;;
53519;SDS011;39397;53.204;5.778;2023-05-07T10:24:11;17.50;;;15.70;;
53519;SDS011;39397;53.204;5.778;2023-05-07T10:26:50;17.75;;;15.95;;
53519;SDS011;39397;53.204;5.778;2023-05-07T10:31:57;18.63;;;16.83;;
53519;SDS011;39397;53.204;5.778;2023-05-07T10:34:29;19.38;;;17.23;;
53519;SDS011;39397;53.204;5.778;2023-05-07T10:37:01;18.42;;;16.52;;
53519;SDS011;39397;53.204;5.778;2023-05-07T10:39:28;18.15;;;16.25;;
53519;SDS011;39397;53.204;5.778;2023-05-07T10:41:54;17.70;;;15.98;;
53519;SDS011;39397;53.204;5.778;2023-05-07T10:44:29;20.88;;;17.67;;
53519;SDS011;39397;53.204;5.778;2023-05-07T10:47:05;17.90;;;15.77;;
53519;SDS011;39397;53.204;5.778;2023-05-07T10:49:31;18.70;;;16.73;;
53519;SDS011;39397;53.204;5.778;2023-05-07T10:54:45;20.27;;;17.35;;
53519;SDS011;39397;53.204;5.778;2023-05-07T11:00:48;19.23;;;17.20;;
53519;SDS011;39397;53.204;5.778;2023-05-07T11:05:26;18.38;;;16.55;;
53519;SDS011;39397;53.204;5.778;2023-05-07T11:07:56;18.48;;;16.58;;
53519;SDS011;39397;53.204;5.778;2023-05-07T11:10:23;21.55;;;17.70;;
53519;SDS011;39397;53.204;5.778;2023-05-07T11:13:41;20.00;;;17.90;;
53519;SDS011;39397;53.204;5.778;2023-05-07T11:16:19;18.38;;;16.38;;
53519;SDS011;39397;53.204;5.778;2023-05-07T11:18:47;19.15;;;17.23;;
53519;SDS011;39397;53.204;5.778;2023-05-07T11:24:13;20.25;;;17.70;;
53519;SDS011;39397;53.204;5.778;2023-05-07T11:29:12;19.33;;;17.33;;
53519;SDS011;39397;53.204;5.778;2023-05-07T11:31:48;18.40;;;16.40;;
53519;SDS011;39397;53.204;5.778;2023-05-07T11:34:25;21.05;;;18.20;;
53519;SDS011;39397;53.204;5.778;2023-05-07T11:36:52;21.60;;;19.45;;
53519;SDS011;39397;53.204;5.778;2023-05-07T11:39:33;18.27;;;16.38;;
53519;SDS011;39397;53.204;5.778;2023-05-07T11:42:00;18.83;;;16.92;;
53519;SDS011;39397;53.204;5.778;2023-05-07T11:44:42;18.98;;;17.08;;
53519;SDS011;39397;53.204;5.778;2023-05-07T11:47:09;18.73;;;16.73;;
53519;SDS011;39397;53.204;5.778;2023-05-07T11:49:36;18.50;;;16.70;;
53519;SDS011;39397;53.204;5.778;2023-05-07T11:52:01;22.08;;;18.33;;
53519;SDS011;39397;53.204;5.778;2023-05-07T11:54:34;20.50;;;17.45;;
53519;SDS011;39397;53.204;5.778;2023-05-07T11:59:27;17.15;;;15.13;;
53519;SDS011;39397;53.204;5.778;2023-05-07T12:01:55;18.48;;;16.67;;
53519;SDS011;39397;53.204;5.778;2023-05-07T12:04:22;16.95;;;15.20;;
53519;SDS011;39397;53.204;5.778;2023-05-07T12:06:48;19.00;;;17.10;;
53519;SDS011;39397;53.204;5.778;2023-05-07T12:09:15;17.80;;;15.90;;
53519;SDS011;39397;53.204;5.778;2023-05-07T12:11:42;17.27;;;15.48;;
53519;SDS011;39397;53.204;5.778;2023-05-07T12:14:11;18.88;;;16.17;;
53519;SDS011;39397;53.204;5.778;2023-05-07T12:16:36;19.23;;;16.70;;
53519;SDS011;39397;53.204;5.778;2023-05-07T12:19:04;18.63;;;16.67;;
53519;SDS011;39397;53.204;5.778;2023-05-07T12:21:34;18.15;;;16.25;;
53519;SDS011;39397;53.204;5.778;2023-05-07T12:24:00;18.30;;;16.42;;
53519;SDS011;39397;53.204;5.778;2023-05-07T12:26:26;20.27;;;14.85;;
53519;SDS011;39397;53.204;5.778;2023-05-07T12:28:52;15.60;;;13.98;;
53519;SDS011;39397;53.204;5.778;2023-05-07T12:31:18;16.75;;;15.02;;
53519;SDS011;39397;53.204;5.778;2023-05-07T12:33:43;15.48;;;13.98;;
53519;SDS011;39397;53.204;5.778;2023-05-07T12:36:11;17.38;;;15.30;;
53519;SDS011;39397;53.204;5.778;2023-05-07T12:38:38;17.92;;;14.88;;
53519;SDS011;39397;53.204;5.778;2023-05-07T12:41:06;17.75;;;14.85;;
53519;SDS011;39397;53.204;5.778;2023-05-07T12:43:33;16.70;;;14.07;;
53519;SDS011;39397;53.204;5.778;2023-05-07T12:46:00;15.65;;;13.10;;
53519;SDS011;39397;53.204;5.778;2023-05-07T12:48:28;15.55;;;13.98;;
53519;SDS011;39397;53.204;5.778;2023-05-07T12:50:54;15.07;;;13.48;;
53519;SDS011;39397;53.204;5.778;2023-05-07T12:53:21;15.50;;;13.48;;
53519;SDS011;39397;53.204;5.778;2023-05-07T12:55:50;17.15;;;14.40;;
53519;SDS011;39397;53.204;5.778;2023-05-07T12:58:17;15.65;;;14.05;;
53519;SDS011;39397;53.204;5.778;2023-05-07T13:00:46;15.13;;;13.52;;
53519;SDS011;39397;53.204;5.778;2023-05-07T13:03:20;15.40;;;13.80;;
53519;SDS011;39397;53.204;5.778;2023-05-07T13:05:51;15.82;;;13.57;;
53519;SDS011;39397;53.204;5.778;2023-05-07T13:08:51;14.85;;;12.63;;
53519;SDS011;39397;53.204;5.778;2023-05-07T13:11:10;12.40;;;11.10;;
53519;SDS011;39397;53.204;5.778;2023-05-07T13:13:37;13.05;;;11.75;;
53519;SDS011;39397;53.204;5.778;2023-05-07T13:16:04;13.63;;;11.30;;
53519;SDS011;39397;53.204;5.778;2023-05-07T13:18:31;12.63;;;11.32;;
53519;SDS011;39397;53.204;5.778;2023-05-07T13:20:57;15.15;;;13.07;;
53519;SDS011;39397;53.204;5.778;2023-05-07T13:23:23;14.50;;;13.10;;
53519;SDS011;39397;53.204;5.778;2023-05-07T13:25:50;13.00;;;11.68;;
53519;SDS011;39397;53.204;5.778;2023-05-07T13:28:16;13.00;;;11.60;;
53519;SDS011;39397;53.204;5.778;2023-05-07T13:30:42;14.05;;;12.65;;
53519;SDS011;39397;53.204;5.778;2023-05-07T13:33:08;14.50;;;11.85;;
53519;SDS011;39397;53.204;5.778;2023-05-07T13:35:34;13.25;;;11.95;;
53519;SDS011;39397;53.204;5.778;2023-05-07T13:38:00;12.45;;;11.02;;
53519;SDS011;39397;53.204;5.778;2023-05-07T13:40:26;13.88;;;11.85;;
53519;SDS011;39397;53.204;5.778;2023-05-07T13:42:53;12.82;;;10.95;;
53519;SDS011;39397;53.204;5.778;2023-05-07T13:45:19;15.20;;;11.75;;
53519;SDS011;39397;53.204;5.778;2023-05-07T13:47:45;13.20;;;11.63;;
53519;SDS011;39397;53.204;5.778;2023-05-07T13:50:11;12.82;;;11.52;;
53519;SDS011;39397;53.204;5.778;2023-05-07T13:52:41;13.82;;;12.43;;
53519;SDS011;39397;53.204;5.778;2023-05-07T13:55:08;13.48;;;12.15;;
53519;SDS011;39397;53.204;5.778;2023-05-07T13:57:35;12.45;;;11.15;;
53519;SDS011;39397;53.204;5.778;2023-05-07T14:00:02;13.45;;;12.15;;
53519;SDS011;39397;53.204;5.778;2023-05-07T14:02:30;13.23;;;11.68;;
53519;SDS011;39397;53.204;5.778;2023-05-07T14:04:56;13.00;;;11.70;;
53519;SDS011;39397;53.204;5.778;2023-05-07T14:07:22;13.38;;;11.70;;
53519;SDS011;39397;53.204;5.778;2023-05-07T14:09:48;12.45;;;11.13;;
53519;SDS011;39397;53.204;5.778;2023-05-07T14:12:14;11.80;;;10.57;;
53519;SDS011;39397;53.204;5.778;2023-05-07T14:14:40;11.57;;;10.38;;
53519;SDS011;39397;53.204;5.778;2023-05-07T14:17:06;12.05;;;10.73;;
53519;SDS011;39397;53.204;5.778;2023-05-07T14:19:33;12.85;;;10.05;;
53519;SDS011;39397;53.204;5.778;2023-05-07T14:21:58;12.50;;;11.27;;
53519;SDS011;39397;53.204;5.778;2023-05-07T14:24:24;12.05;;;10.85;;
53519;SDS011;39397;53.204;5.778;2023-05-07T14:26:50;11.60;;;10.38;;
53519;SDS011;39397;53.204;5.778;2023-05-07T14:29:16;13.23;;;11.02;;
53519;SDS011;39397;53.204;5.778;2023-05-07T14:31:44;11.90;;;10.70;;
53519;SDS011;39397;53.204;5.778;2023-05-07T14:34:10;12.13;;;10.85;;
53519;SDS011;39397;53.204;5.778;2023-05-07T14:36:36;11.73;;;10.52;;
53519;SDS011;39397;53.204;5.778;2023-05-07T14:39:03;12.88;;;11.13;;
53519;SDS011;39397;53.204;5.778;2023-05-07T14:41:29;12.45;;;11.02;;